Vremea mâine în Sângeorgiu De Pădure - Romania

Vrei sa afli care e starea vremii acum in Mures - Romania? Dorim sa iti furnizam starea vremii pentru Mures - Romania. Starea vremii Mures - Romania pentru astazi.

Vremea mâine în Sângeorgiu De Pădure

Temperatura minimă:
8 °C

Temperatura maximă:
23.8 °C

Mâine va fi: Patchy rain nearby
Precipitații: 64 %
Umiditate: 68%
Viteza maximă vânt mâine:
17.3 km/h

Evoluția vremii in Sângeorgiu De Pădure pe ore mâine

Ora: 03:00
Temperatura: °C
Sansa de precipitatii: %
Ora Descriere Temp Se simte Precipitatii Umiditate Vant
00:00Senin11°10.5°0%70%SE 6.5 KM/H
01:00Senin10.2°9.6°0%75%SE 6.5 KM/H
02:00Senin9.5°8.8°0%80%SE 6.5 KM/H
03:00Senin8.9°8.2°0%84%SE 6.1 KM/H
04:00Senin8.5°7.9°0%86%ESE 5.8 KM/H
05:00Senin8.2°7.6°0%86%SE 5.4 KM/H
06:00Senin7.4°0%87%SE 5 KM/H
07:00Senin9.2°8.6°0%84%ESE 5.8 KM/H
08:00Senin13.4°13.7°0%74%SE 4.7 KM/H
09:00Senin16°16°0%67%SE 4.3 KM/H
10:00Senin18.3°18.3°0%60%SSW 4 KM/H
11:00Senin20.2°20.2°0%55%SW 4.3 KM/H
12:00Senin21.6°21.6°0%51%W 5 KM/H
13:00Senin22.5°24.5°0%48%W 6.8 KM/H
14:00Senin23.1°24.6°0%46%WNW 7.9 KM/H
15:00Senin23.6°24.7°0%43%NW 7.6 KM/H
16:00Senin23.8°24.7°0%40%WNW 8.3 KM/H
17:00Senin23.7°24.6°0%40%WNW 7.2 KM/H
18:00Patchy rain nearby22.6°24.6°100%49%WSW 10.1 KM/H
19:00Patchy rain nearby16.4°16.4°100%74%SSW 17.3 KM/H
20:00Senin12.6°12.1°0%85%SSW 7.6 KM/H
21:0011.6°12°0%84%S 3.6 KM/H
22:0010.7°10.7°0%84%NE 1.4 KM/H
23:0010.4°10.8°0%85%E 3.2 KM/H




tutorials